CheckWX is a tool to help pilots better visualize weather data.  It is not intended as a substitute for an official pre-flight weather briefing.

19:04:53 UTC

KHZR METAR
False River Regional Airport
New Roads, Louisiana, USA
Current

27 mins ago

KHZR 221838Z AUTO 14006KT 10SM SCT025 SCT029 BKN090 26/21 A3000 RMK AO2
Observed
Feb-22 @ 18:38 UTC
Wind
  • 140° at 6 KTS
Visibility
10 SM
Flight Rules
VFR
Cloud Levels
  • Scattered at 2,500' AGL
  • Scattered at 2,900' AGL
  • Broken at 9,000' AGL
Temperature
26°C / 79°F
Dewpoint
21°C / 70°F
Humidity
74%
Altimeter
30" Hg
Pressure
1015.92 hPa
Previous

48 mins ago

KHZR 221817Z AUTO 16009KT 10SM SCT023 BKN030 BKN090 26/21 A3001 RMK AO2
Observed
Feb-22 @ 18:17 UTC
Wind
  • 160° at 9 KTS
Visibility
10 SM
Flight Rules
MVFR
Cloud Levels
  • Scattered at 2,300' AGL
  • Broken at 3,000' AGL
  • Broken at 9,000' AGL
Temperature
26°C / 79°F
Dewpoint
21°C / 70°F
Humidity
74%
Altimeter
30.01" Hg
Pressure
1016.22 hPa
Previous

1 hour ago

KHZR 221757Z AUTO 18006KT 10SM BKN021 BKN028 OVC041 25/21 A3003 RMK AO2
Observed
Feb-22 @ 17:57 UTC
Wind
  • 180° at 6 KTS
Visibility
10 SM
Flight Rules
MVFR
Cloud Levels
  • Broken at 2,100' AGL
  • Broken at 2,800' AGL
  • Overcast at 4,100' AGL
Temperature
25°C / 77°F
Dewpoint
21°C / 70°F
Humidity
79%
Altimeter
30.03" Hg
Pressure
1016.92 hPa